Time;durP1;ratioP1;P1;durP2;ratioP2;P2;SDS_P1;SDS_P2;PMS_P1;PMS_P2;Temp;Humidity;BMP_temperature;BMP_pressure;BME280_temperature;BME280_humidity;BME280_pressure;Samples;Min_cycle;Max_cycle;Signal;HPM_P1;HPM_P2
2022/01/16 00:00:05;;;;;;;;;;;-1.60;99.90;;;;;;5032003;28;19956;-86
2022/01/16 00:05:02;;;;;;;;;;;-1.70;99.90;;;;;;5047160;28;19960;-86
2022/01/16 00:07:28;;;;;;;;;;;-1.60;99.90;;;;;;5015031;28;19964;-87
2022/01/16 00:09:54;;;;;;;;;;;-1.60;99.90;;;;;;5015727;28;20379;-87
2022/01/16 00:12:22;;;;;;;;;;;-1.50;99.90;;;;;;5015675;28;19913;-86
2022/01/16 00:14:48;;;;;;;;;;;-1.50;99.90;;;;;;5032026;28;20233;-86
2022/01/16 00:17:13;;;;;;;;;;;-1.40;99.90;;;;;;5031334;28;19916;-87
2022/01/16 00:19:39;;;;;;;;;;;-1.50;99.90;;;;;;5032221;28;20388;-88
2022/01/16 00:22:12;;;;;;;;;;;-1.40;99.90;;;;;;5015836;28;20319;-88
2022/01/16 00:24:37;;;;;;;;;;;-1.50;99.90;;;;;;5027968;28;19928;-87
2022/01/16 00:27:03;;;;;;;;;;;-1.50;99.90;;;;;;5028929;28;19914;-87
2022/01/16 00:29:31;;;;;;;;;;;-1.60;99.90;;;;;;5011619;28;19917;-87
2022/01/16 00:31:57;;;;;;;;;;;-1.50;99.90;;;;;;5011349;28;20032;-87
2022/01/16 00:34:25;;;;;;;;;;;-1.50;99.90;;;;;;5028529;28;20023;-85
2022/01/16 00:36:51;;;;;;;;;;;-1.40;99.90;;;;;;5028442;28;20350;-87
2022/01/16 00:39:16;;;;;;;;;;;-1.40;99.90;;;;;;5025801;28;19918;-88
2022/01/16 00:41:43;;;;;;;;;;;-1.40;99.90;;;;;;4995596;28;19921;-87
2022/01/16 00:44:09;;;;;;;;;;;-1.50;99.90;;;;;;5012032;28;20369;-87
2022/01/16 00:46:35;;;;;;;;;;;-1.50;99.90;;;;;;4995481;28;19913;-87
2022/01/16 00:49:00;;;;;;;;;;;-1.50;99.90;;;;;;4995683;28;19913;-86
2022/01/16 00:51:26;;;;;;;;;;;-1.50;99.90;;;;;;4995703;28;19918;-87
2022/01/16 00:53:51;;;;;;;;;;;-1.60;99.90;;;;;;5013599;28;19914;-88
2022/01/16 00:56:17;;;;;;;;;;;-1.50;99.90;;;;;;5008649;28;20004;-86
2022/01/16 00:58:42;;;;;;;;;;;-1.40;99.90;;;;;;5035026;28;19913;-86
2022/01/16 01:01:08;;;;;;;;;;;-1.40;99.90;;;;;;5034432;28;19933;-86
2022/01/16 01:03:34;;;;;;;;;;;-1.40;99.90;;;;;;5054394;28;20659;-86
2022/01/16 01:06:00;;;;;;;;;;;-1.40;99.90;;;;;;5041524;28;19963;-87
2022/01/16 01:08:27;;;;;;;;;;;-1.40;99.90;;;;;;5043216;28;19913;-88
2022/01/16 01:10:54;;;;;;;;;;;-1.30;99.90;;;;;;5044364;28;19917;-88
2022/01/16 01:16:01;;;;;;;;;;;-1.30;99.90;;;;;;5037407;28;19924;-88
2022/01/16 01:18:27;;;;;;;;;;;-1.40;99.90;;;;;;5036198;28;19921;-86
2022/01/16 01:20:53;;;;;;;;;;;-1.30;99.90;;;;;;5035332;28;19921;-86
2022/01/16 01:23:19;;;;;;;;;;;-1.40;99.90;;;;;;5034766;28;19929;-87
2022/01/16 01:25:44;;;;;;;;;;;-1.40;99.90;;;;;;5034121;28;20364;-88
2022/01/16 01:28:12;;;;;;;;;;;-1.40;99.90;;;;;;5035851;28;19914;-88
2022/01/16 01:30:38;;;;;;;;;;;-1.40;99.90;;;;;;5035724;28;19913;-87
2022/01/16 01:33:04;;;;;;;;;;;-1.40;99.90;;;;;;5035014;28;19948;-87
2022/01/16 01:35:36;;;;;;;;;;;-1.40;99.90;;;;;;5034930;28;20209;-86
2022/01/16 01:38:02;;;;;;;;;;;-1.40;99.90;;;;;;5035113;28;19963;-89
2022/01/16 01:40:28;;;;;;;;;;;-1.30;99.90;;;;;;5035215;28;19913;-88
2022/01/16 01:51:19;;;;;;;;;;;-1.40;99.90;;;;;;5036455;28;19971;-87
2022/01/16 01:53:45;;;;;;;;;;;-1.50;99.90;;;;;;5035727;28;19917;-86
2022/01/16 01:56:12;;;;;;;;;;;-1.60;99.90;;;;;;5034624;28;20349;-88
2022/01/16 01:58:38;;;;;;;;;;;-1.60;99.90;;;;;;5034467;28;19936;-90
2022/01/16 02:01:04;;;;;;;;;;;-1.50;99.90;;;;;;5033946;28;20268;-87
2022/01/16 02:06:09;;;;;;;;;;;-1.50;99.90;;;;;;5014521;28;19925;-86
2022/01/16 02:08:35;;;;;;;;;;;-1.60;99.90;;;;;;5014501;28;19910;-87
2022/01/16 02:11:02;;;;;;;;;;;-1.50;99.90;;;;;;5014277;28;19959;-88
2022/01/16 02:13:35;;;;;;;;;;;-1.40;99.90;;;;;;5033321;28;20403;-86
2022/01/16 02:34:38;;;;;;;;;;;-1.40;99.90;;;;;;5034547;28;19913;-88
2022/01/16 02:37:07;;;;;;;;;;;-1.50;99.90;;;;;;5032452;28;19920;-88
2022/01/16 02:39:36;;;;;;;;;;;-1.50;99.90;;;;;;5033316;28;20000;-88
2022/01/16 02:42:05;;;;;;;;;;;-1.60;99.90;;;;;;5033326;28;20019;-87
2022/01/16 02:44:35;;;;;;;;;;;-1.50;99.90;;;;;;5034317;28;19913;-88
2022/01/16 02:47:02;;;;;;;;;;;-1.50;99.90;;;;;;5032863;28;19919;-86
2022/01/16 02:49:29;;;;;;;;;;;-1.60;99.90;;;;;;5033245;28;19913;-88
2022/01/16 02:52:02;;;;;;;;;;;-1.60;99.90;;;;;;5033372;28;20349;-88
2022/01/16 02:54:28;;;;;;;;;;;-1.60;99.90;;;;;;5049834;28;19917;-87
2022/01/16 02:56:54;;;;;;;;;;;-1.60;99.90;;;;;;5016827;28;19920;-86
2022/01/16 02:59:21;;;;;;;;;;;-1.60;99.90;;;;;;5017381;28;20368;-87
2022/01/16 03:01:47;;;;;;;;;;;-1.60;99.90;;;;;;5032874;28;20361;-87
2022/01/16 03:04:13;;;;;;;;;;;-1.60;99.90;;;;;;5033059;28;19917;-86
2022/01/16 03:06:39;;;;;;;;;;;-1.50;99.90;;;;;;5033305;28;20372;-88
2022/01/16 03:09:09;;;;;;;;;;;-1.50;99.90;;;;;;5032433;28;19909;-86
2022/01/16 03:11:38;;;;;;;;;;;-1.50;99.90;;;;;;5033260;28;19913;-88
2022/01/16 03:14:05;;;;;;;;;;;-1.50;99.90;;;;;;5033702;28;20027;-86
2022/01/16 03:16:30;;;;;;;;;;;-1.50;99.90;;;;;;5033061;28;19994;-87
2022/01/16 03:21:54;;;;;;;;;;;-1.50;99.90;;;;;;5021834;28;20672;-87
2022/01/16 03:24:31;;;;;;;;;;;-1.50;99.90;;;;;;5025401;28;19929;-87
2022/01/16 03:26:59;;;;;;;;;;;-1.50;99.90;;;;;;5032719;28;20015;-90
2022/01/16 03:29:25;;;;;;;;;;;-1.50;99.90;;;;;;5032436;28;20283;-86
2022/01/16 03:31:51;;;;;;;;;;;-1.50;99.90;;;;;;5015604;28;19917;-87
2022/01/16 03:34:17;;;;;;;;;;;-1.50;99.90;;;;;;5032108;28;20265;-86
2022/01/16 03:36:42;;;;;;;;;;;-1.50;99.90;;;;;;5032076;28;19913;-87
2022/01/16 03:39:08;;;;;;;;;;;-1.40;99.90;;;;;;5015706;28;20345;-87
2022/01/16 03:41:35;;;;;;;;;;;-1.40;99.90;;;;;;5032071;28;19988;-88
2022/01/16 03:44:02;;;;;;;;;;;-1.40;99.90;;;;;;5032240;28;19920;-86
2022/01/16 03:46:34;;;;;;;;;;;-1.30;99.90;;;;;;5031630;28;20420;-88
2022/01/16 03:49:10;;;;;;;;;;;-1.30;99.90;;;;;;5032017;28;20360;-86
2022/01/16 03:51:37;;;;;;;;;;;-1.40;99.90;;;;;;5014528;28;19921;-87
2022/01/16 03:54:03;;;;;;;;;;;-1.40;99.90;;;;;;5008932;28;19921;-86
2022/01/16 03:56:28;;;;;;;;;;;-1.30;99.90;;;;;;5039387;28;19917;-87
2022/01/16 03:58:54;;;;;;;;;;;-1.20;99.90;;;;;;5040372;28;19909;-87
2022/01/16 04:01:19;;;;;;;;;;;-1.20;99.90;;;;;;5020237;28;19949;-88
2022/01/16 04:03:45;;;;;;;;;;;-1.20;99.90;;;;;;5035289;28;19999;-87
2022/01/16 04:06:11;;;;;;;;;;;-1.20;99.90;;;;;;5033350;28;19917;-88
2022/01/16 04:08:36;;;;;;;;;;;-1.20;99.90;;;;;;5032101;28;19979;-89
2022/01/16 04:11:02;;;;;;;;;;;-1.30;99.90;;;;;;5032265;28;19913;-87
2022/01/16 04:13:27;;;;;;;;;;;-1.20;99.90;;;;;;5032175;28;19963;-87
2022/01/16 04:15:53;;;;;;;;;;;-1.30;99.90;;;;;;5033112;28;20274;-86
2022/01/16 04:18:18;;;;;;;;;;;-1.30;99.90;;;;;;5032267;28;19917;-87
2022/01/16 04:20:44;;;;;;;;;;;-1.30;99.90;;;;;;5031725;28;20411;-88
2022/01/16 04:23:10;;;;;;;;;;;-1.30;99.90;;;;;;5031550;28;20056;-88
2022/01/16 04:25:36;;;;;;;;;;;-1.20;99.90;;;;;;5031988;28;20370;-89
2022/01/16 04:28:02;;;;;;;;;;;-1.20;99.90;;;;;;5033312;28;20419;-88
2022/01/16 04:30:27;;;;;;;;;;;-1.10;99.90;;;;;;5036224;28;19913;-88
2022/01/16 04:32:53;;;;;;;;;;;-1.10;99.90;;;;;;5020299;28;19989;-88
2022/01/16 04:35:19;;;;;;;;;;;-1.10;99.90;;;;;;5020032;28;19925;-84
2022/01/16 04:37:44;;;;;;;;;;;-1.10;99.90;;;;;;5019823;28;19979;-85
2022/01/16 04:40:10;;;;;;;;;;;-1.10;99.90;;;;;;5037253;28;19915;-86
2022/01/16 04:45:20;;;;;;;;;;;-1.10;99.90;;;;;;5030125;28;20025;-87
2022/01/16 04:47:47;;;;;;;;;;;-1.10;99.90;;;;;;5032443;28;19913;-88
2022/01/16 04:50:13;;;;;;;;;;;-1.00;99.90;;;;;;5015696;28;19960;-87
2022/01/16 04:52:39;;;;;;;;;;;-1.10;99.90;;;;;;5031875;28;19921;-88
2022/01/16 04:55:06;;;;;;;;;;;-1.10;99.90;;;;;;5034931;28;19917;-88
2022/01/16 04:57:32;;;;;;;;;;;-1.10;99.90;;;;;;5035153;28;19913;-86
2022/01/16 04:59:57;;;;;;;;;;;-1.10;99.90;;;;;;5035501;28;20007;-87
2022/01/16 05:02:23;;;;;;;;;;;-1.10;99.90;;;;;;5018313;28;19936;-88
2022/01/16 05:04:48;;;;;;;;;;;-1.10;99.90;;;;;;5018948;28;19917;-87
2022/01/16 05:07:14;;;;;;;;;;;-1.10;99.90;;;;;;5017890;28;20391;-87
2022/01/16 05:09:39;;;;;;;;;;;-1.00;99.90;;;;;;5036164;28;19970;-87
2022/01/16 05:12:11;;;;;;;;;;;-1.00;99.90;;;;;;5035342;28;20004;-86
2022/01/16 05:17:21;;;;;;;;;;;-1.00;99.90;;;;;;5035425;28;19960;-86
2022/01/16 05:19:46;;;;;;;;;;;-1.00;99.90;;;;;;5034536;28;20357;-88
2022/01/16 05:22:12;;;;;;;;;;;-1.00;99.90;;;;;;5034540;28;20035;-87
2022/01/16 05:24:37;;;;;;;;;;;-1.00;99.90;;;;;;5018605;28;20400;-88
2022/01/16 05:27:05;;;;;;;;;;;-1.00;99.90;;;;;;4997928;28;19917;-88
2022/01/16 05:29:30;;;;;;;;;;;-1.10;99.90;;;;;;4998729;28;19917;-88
2022/01/16 05:31:56;;;;;;;;;;;-1.00;99.90;;;;;;5014074;28;19936;-87
2022/01/16 05:34:25;;;;;;;;;;;-1.00;99.90;;;;;;4998300;28;19941;-85
2022/01/16 05:36:52;;;;;;;;;;;-1.10;99.90;;;;;;5015031;28;19914;-90
2022/01/16 05:39:18;;;;;;;;;;;-1.00;99.90;;;;;;4997051;28;19918;-86
2022/01/16 05:41:43;;;;;;;;;;;-0.90;99.90;;;;;;5014694;28;20442;-85
2022/01/16 05:44:09;;;;;;;;;;;-1.00;99.90;;;;;;5028501;28;20273;-90
2022/01/16 05:46:35;;;;;;;;;;;-1.00;99.90;;;;;;5017279;28;19920;-86
2022/01/16 05:49:00;;;;;;;;;;;-1.10;99.90;;;;;;5033675;28;19949;-87
2022/01/16 05:51:26;;;;;;;;;;;-1.10;99.90;;;;;;5016862;28;19917;-88
2022/01/16 05:53:51;;;;;;;;;;;-1.10;99.90;;;;;;5017317;28;19918;-86
2022/01/16 05:56:17;;;;;;;;;;;-1.10;99.90;;;;;;5033778;28;19915;-86
2022/01/16 05:58:42;;;;;;;;;;;-1.10;99.90;;;;;;5033380;28;20341;-87
2022/01/16 06:01:08;;;;;;;;;;;-1.10;99.90;;;;;;5033373;28;20020;-87
2022/01/16 06:03:34;;;;;;;;;;;-1.10;99.90;;;;;;5034888;28;19917;-86
2022/01/16 06:09:50;;;;;;;;;;;;;;;;;;;;;
2022/01/16 06:12:11;;;;;;;;;;;-1.20;99.90;;;;;;5033966;28;19909;-87
2022/01/16 06:14:37;;;;;;;;;;;-1.20;99.90;;;;;;5016701;28;19948;-87
2022/01/16 06:17:02;;;;;;;;;;;-1.20;99.90;;;;;;5033435;28;19917;-86
2022/01/16 06:19:28;;;;;;;;;;;-1.20;99.90;;;;;;5034003;28;20338;-89
2022/01/16 06:21:54;;;;;;;;;;;-1.20;99.90;;;;;;5028742;28;19913;-87
2022/01/16 06:24:19;;;;;;;;;;;-1.20;99.90;;;;;;5014189;28;19971;-86
2022/01/16 06:26:45;;;;;;;;;;;-1.20;99.90;;;;;;5033225;28;19909;-87
2022/01/16 06:29:10;;;;;;;;;;;-1.20;99.90;;;;;;5017192;28;20426;-87
2022/01/16 06:31:36;;;;;;;;;;;-1.20;99.90;;;;;;5016636;28;19956;-89
2022/01/16 06:34:04;;;;;;;;;;;-1.10;99.90;;;;;;5016500;28;20364;-85
2022/01/16 06:36:30;;;;;;;;;;;-1.20;99.90;;;;;;5032550;28;20319;-89
2022/01/16 06:38:56;;;;;;;;;;;-1.20;99.90;;;;;;5033984;28;19909;-86
2022/01/16 06:41:22;;;;;;;;;;;-1.20;99.90;;;;;;5037883;28;20311;-87
2022/01/16 06:43:47;;;;;;;;;;;-1.30;99.90;;;;;;5038532;28;19909;-86
2022/01/16 06:46:13;;;;;;;;;;;-1.20;99.90;;;;;;5037635;28;19917;-87
2022/01/16 06:48:40;;;;;;;;;;;-1.20;99.90;;;;;;5036875;28;19913;-88
2022/01/16 06:51:06;;;;;;;;;;;-1.20;99.90;;;;;;5033613;28;19917;-88
2022/01/16 06:53:32;;;;;;;;;;;-1.20;99.90;;;;;;5027425;28;19913;-89
2022/01/16 06:55:57;;;;;;;;;;;-1.20;99.90;;;;;;5014881;28;20004;-87
2022/01/16 06:58:23;;;;;;;;;;;-1.20;99.90;;;;;;5030510;28;19914;-85
2022/01/16 07:00:48;;;;;;;;;;;-1.20;99.90;;;;;;5035830;28;19995;-88
2022/01/16 07:03:14;;;;;;;;;;;-1.20;99.90;;;;;;5036451;28;19924;-86
2022/01/16 07:05:40;;;;;;;;;;;-1.30;99.90;;;;;;5024068;28;19917;-88
2022/01/16 07:08:06;;;;;;;;;;;-1.30;99.90;;;;;;5032628;28;19913;-88
2022/01/16 07:10:32;;;;;;;;;;;-1.30;99.90;;;;;;5033627;28;20387;-86
2022/01/16 07:13:05;;;;;;;;;;;-1.30;99.90;;;;;;5033662;28;19977;-87
2022/01/16 07:15:30;;;;;;;;;;;-1.40;99.90;;;;;;5034780;28;19913;-87
2022/01/16 07:17:56;;;;;;;;;;;-1.40;99.90;;;;;;5027685;28;20391;-86
2022/01/16 07:20:22;;;;;;;;;;;-1.40;99.90;;;;;;5015716;28;19956;-87
2022/01/16 07:22:47;;;;;;;;;;;-1.50;99.90;;;;;;5034260;28;19923;-88
2022/01/16 07:25:13;;;;;;;;;;;-1.60;99.90;;;;;;5033681;28;20323;-86
2022/01/16 07:27:39;;;;;;;;;;;-1.60;99.90;;;;;;5033326;28;20368;-87
2022/01/16 07:30:05;;;;;;;;;;;-1.70;99.90;;;;;;5026580;28;19917;-86
2022/01/16 07:32:31;;;;;;;;;;;-1.70;99.90;;;;;;5015376;28;19918;-86
2022/01/16 07:34:56;;;;;;;;;;;-1.80;99.90;;;;;;5030480;28;20336;-87
2022/01/16 07:37:22;;;;;;;;;;;-1.70;99.90;;;;;;5016768;28;20352;-86
2022/01/16 07:39:47;;;;;;;;;;;-1.80;99.90;;;;;;5028497;28;19939;-86
2022/01/16 07:42:13;;;;;;;;;;;-1.80;99.90;;;;;;5017108;28;19921;-88
2022/01/16 07:44:39;;;;;;;;;;;-1.80;99.90;;;;;;5033951;28;19920;-85
2022/01/16 07:47:05;;;;;;;;;;;-1.90;99.90;;;;;;5016885;28;20012;-86
2022/01/16 07:49:30;;;;;;;;;;;-1.90;99.90;;;;;;5034404;28;19917;-86
2022/01/16 07:51:56;;;;;;;;;;;-1.90;99.90;;;;;;5033788;28;19909;-86
2022/01/16 07:54:21;;;;;;;;;;;-1.90;99.90;;;;;;5034693;28;20434;-88
2022/01/16 07:56:47;;;;;;;;;;;-1.80;99.90;;;;;;5016527;28;20336;-88
2022/01/16 07:59:13;;;;;;;;;;;-1.80;99.90;;;;;;5032587;28;19992;-87
2022/01/16 08:01:38;;;;;;;;;;;-1.70;99.90;;;;;;5033836;28;19914;-86
2022/01/16 08:04:04;;;;;;;;;;;-1.60;99.90;;;;;;5033194;28;19910;-88
2022/01/16 08:06:29;;;;;;;;;;;-1.70;99.90;;;;;;5034708;28;19913;-86
2022/01/16 08:08:56;;;;;;;;;;;-1.60;99.90;;;;;;5032917;28;19916;-86
2022/01/16 08:11:22;;;;;;;;;;;-1.50;99.90;;;;;;5031870;28;20003;-87
2022/01/16 08:13:48;;;;;;;;;;;-1.40;99.90;;;;;;5032670;28;20146;-86
2022/01/16 08:16:14;;;;;;;;;;;-1.30;99.90;;;;;;5032198;28;19913;-86
2022/01/16 08:18:40;;;;;;;;;;;-1.40;99.90;;;;;;5032288;28;19987;-86
2022/01/16 08:21:05;;;;;;;;;;;-1.40;99.90;;;;;;5033308;28;20360;-86
2022/01/16 08:23:31;;;;;;;;;;;-1.40;99.90;;;;;;5015185;28;19929;-88
2022/01/16 08:25:57;;;;;;;;;;;-1.40;99.90;;;;;;5031866;28;20654;-88
2022/01/16 08:28:23;;;;;;;;;;;-1.40;99.90;;;;;;5031153;28;19959;-88
2022/01/16 08:30:48;;;;;;;;;;;-1.50;99.90;;;;;;5030461;28;19954;-85
2022/01/16 08:33:14;;;;;;;;;;;-1.50;99.90;;;;;;5031367;28;19959;-88
2022/01/16 08:35:40;;;;;;;;;;;-1.50;99.90;;;;;;5030073;28;19917;-88
2022/01/16 08:38:05;;;;;;;;;;;-1.60;99.90;;;;;;5030755;28;19909;-85
2022/01/16 08:40:31;;;;;;;;;;;-1.60;99.90;;;;;;5030715;28;19917;-87
2022/01/16 08:42:56;;;;;;;;;;;-1.70;99.90;;;;;;5028121;28;19918;-86
2022/01/16 08:45:22;;;;;;;;;;;-1.70;99.90;;;;;;5030612;28;20035;-87
2022/01/16 08:47:47;;;;;;;;;;;-1.70;99.90;;;;;;5045955;28;19909;-87
2022/01/16 08:50:14;;;;;;;;;;;-1.60;99.90;;;;;;5030436;28;19919;-85
2022/01/16 08:52:41;;;;;;;;;;;-1.50;99.90;;;;;;5014570;28;20272;-88
2022/01/16 08:55:07;;;;;;;;;;;-1.40;99.90;;;;;;5030539;28;19920;-86
2022/01/16 08:57:33;;;;;;;;;;;-1.30;99.90;;;;;;5030370;28;19913;-88
2022/01/16 08:59:59;;;;;;;;;;;-1.30;99.90;;;;;;5031415;28;19919;-87
2022/01/16 09:02:24;;;;;;;;;;;-1.40;99.90;;;;;;5029636;28;20376;-86
2022/01/16 09:04:50;;;;;;;;;;;-1.40;99.90;;;;;;5031711;28;19913;-87
2022/01/16 09:07:16;;;;;;;;;;;-1.40;99.90;;;;;;5030487;28;19909;-87
2022/01/16 09:09:42;;;;;;;;;;;-1.30;99.90;;;;;;5029402;28;19913;-86
2022/01/16 09:12:08;;;;;;;;;;;-1.20;99.90;;;;;;5029538;28;19943;-86
2022/01/16 09:14:33;;;;;;;;;;;-1.20;99.90;;;;;;5031854;28;20031;-87
2022/01/16 09:16:59;;;;;;;;;;;-1.10;99.90;;;;;;5051114;28;19971;-88
2022/01/16 09:19:24;;;;;;;;;;;-1.10;99.90;;;;;;5034814;28;19957;-87
2022/01/16 09:21:50;;;;;;;;;;;-1.10;99.90;;;;;;5034508;28;19913;-87
2022/01/16 09:24:16;;;;;;;;;;;-1.00;99.90;;;;;;5034042;28;20377;-86
2022/01/16 09:26:43;;;;;;;;;;;-1.00;99.90;;;;;;5018352;28;23828;-88
2022/01/16 09:29:09;;;;;;;;;;;-0.90;99.90;;;;;;5036717;28;19951;-88
2022/01/16 09:31:34;;;;;;;;;;;-0.80;99.90;;;;;;5036914;28;19917;-87
2022/01/16 09:34:00;;;;;;;;;;;-0.70;99.90;;;;;;5033637;28;19924;-87
2022/01/16 09:36:26;;;;;;;;;;;-0.60;99.90;;;;;;5036359;28;20284;-87
2022/01/16 09:38:52;;;;;;;;;;;-0.50;99.90;;;;;;5035820;28;19909;-87
2022/01/16 09:41:17;;;;;;;;;;;-0.40;99.90;;;;;;5036376;28;19909;-86
2022/01/16 09:43:43;;;;;;;;;;;-0.40;99.90;;;;;;5034647;28;20292;-86
2022/01/16 09:46:09;;;;;;;;;;;-0.40;99.90;;;;;;5032641;28;19921;-88
2022/01/16 09:48:34;;;;;;;;;;;-0.30;99.90;;;;;;5034839;28;19913;-87
2022/01/16 09:51:21;;;;;;;;;;;-0.20;99.90;;;;;;5033884;28;20376;-87
2022/01/16 09:53:46;;;;;;;;;;;-0.20;99.90;;;;;;5033827;28;19913;-85
2022/01/16 09:56:12;;;;;;;;;;;-0.10;99.90;;;;;;5034301;28;19925;-88
2022/01/16 09:58:39;;;;;;;;;;;0.00;99.90;;;;;;5034473;28;19920;-87
2022/01/16 10:01:05;;;;;;;;;;;0.20;99.90;;;;;;5033241;28;20568;-88
2022/01/16 10:03:34;;;;;;;;;;;0.20;99.90;;;;;;5033441;28;19967;-86
2022/01/16 10:06:10;;;;;;;;;;;0.30;99.90;;;;;;5033410;28;20376;-87
2022/01/16 10:08:37;;;;;;;;;;;0.30;99.90;;;;;;5031882;28;19936;-86
2022/01/16 10:11:18;;;;;;;;;;;0.40;99.90;;;;;;5032989;28;19913;-86
2022/01/16 10:13:56;;;;;;;;;;;0.30;99.90;;;;;;5033521;28;20353;-89
2022/01/16 10:16:28;;;;;;;;;;;0.40;99.90;;;;;;5031476;28;20006;-85
2022/01/16 10:18:53;;;;;;;;;;;0.50;99.90;;;;;;5034124;28;20324;-87
2022/01/16 10:21:38;;;;;;;;;;;0.50;99.90;;;;;;5032593;28;19939;-86
2022/01/16 10:24:16;;;;;;;;;;;0.60;99.90;;;;;;5013284;28;20008;-86
2022/01/16 10:26:42;;;;;;;;;;;0.60;99.90;;;;;;5029484;28;19992;-85
2022/01/16 10:29:08;;;;;;;;;;;0.60;99.90;;;;;;5013508;28;19956;-86
2022/01/16 10:31:34;;;;;;;;;;;0.60;99.90;;;;;;5012366;28;20686;-86
2022/01/16 10:33:59;;;;;;;;;;;0.60;99.90;;;;;;5046845;28;20015;-89
2022/01/16 10:36:32;;;;;;;;;;;0.60;99.90;;;;;;5034366;28;19921;-87
2022/01/16 10:39:07;;;;;;;;;;;0.60;99.90;;;;;;5003316;28;19955;-87
2022/01/16 10:41:33;;;;;;;;;;;0.70;99.90;;;;;;5032111;28;19921;-88
2022/01/16 10:43:59;;;;;;;;;;;0.80;99.90;;;;;;5031493;28;19922;-87
2022/01/16 10:46:26;;;;;;;;;;;0.80;99.90;;;;;;5016107;28;19913;-87
2022/01/16 10:49:10;;;;;;;;;;;1.00;99.90;;;;;;5032283;28;19909;-87
2022/01/16 10:51:37;;;;;;;;;;;1.00;99.90;;;;;;5019074;28;19916;-87
2022/01/16 10:54:22;;;;;;;;;;;1.00;99.90;;;;;;5030673;28;19917;-87
2022/01/16 10:56:51;;;;;;;;;;;1.10;99.90;;;;;;5031536;28;20412;-91
2022/01/16 10:59:23;;;;;;;;;;;1.20;99.90;;;;;;5031443;28;19924;-86
2022/01/16 11:02:13;;;;;;;;;;;1.20;99.90;;;;;;5013499;28;19921;-85
2022/01/16 11:04:39;;;;;;;;;;;1.40;99.90;;;;;;5039810;28;20012;-86
2022/01/16 11:07:05;;;;;;;;;;;1.40;99.90;;;;;;5011688;28;19961;-88
2022/01/16 11:09:31;;;;;;;;;;;1.50;99.90;;;;;;5009617;28;20365;-87
2022/01/16 11:11:59;;;;;;;;;;;1.50;99.90;;;;;;5011050;28;19909;-87
2022/01/16 11:14:26;;;;;;;;;;;1.50;99.90;;;;;;5023757;28;19913;-87
2022/01/16 11:16:52;;;;;;;;;;;1.60;99.90;;;;;;5013958;28;19963;-87
2022/01/16 11:19:21;;;;;;;;;;;1.60;99.90;;;;;;5022002;28;19917;-87
2022/01/16 11:21:53;;;;;;;;;;;1.70;99.90;;;;;;5031375;28;19952;-86
2022/01/16 11:24:35;;;;;;;;;;;1.90;99.90;;;;;;5030343;28;19921;-87
2022/01/16 11:27:01;;;;;;;;;;;1.90;99.90;;;;;;5030234;28;19991;-89
2022/01/16 11:29:28;;;;;;;;;;;2.00;99.90;;;;;;5030671;28;19963;-86
2022/01/16 11:31:55;;;;;;;;;;;2.10;99.90;;;;;;5013548;28;19921;-89
2022/01/16 11:34:32;;;;;;;;;;;2.10;99.90;;;;;;5029953;28;19917;-89
2022/01/16 11:36:57;;;;;;;;;;;2.20;99.90;;;;;;5045387;28;19955;-86
2022/01/16 11:39:32;;;;;;;;;;;2.30;99.90;;;;;;5029063;28;19953;-86
2022/01/16 11:41:59;;;;;;;;;;;2.30;99.90;;;;;;5029986;28;19917;-85
2022/01/16 11:44:27;;;;;;;;;;;2.40;99.90;;;;;;5046652;28;19921;-87
2022/01/16 11:46:58;;;;;;;;;;;2.40;99.90;;;;;;5030246;28;19917;-88
2022/01/16 11:49:40;;;;;;;;;;;2.50;99.90;;;;;;5030362;28;19913;-84
2022/01/16 11:52:07;;;;;;;;;;;2.50;99.90;;;;;;5029227;28;19996;-88
2022/01/16 11:54:34;;;;;;;;;;;2.50;99.90;;;;;;5028845;28;19921;-86
2022/01/16 11:57:04;;;;;;;;;;;2.60;99.90;;;;;;5029503;28;19909;-85
2022/01/16 11:59:30;;;;;;;;;;;2.50;99.90;;;;;;5006874;28;20300;-86
2022/01/16 12:01:57;;;;;;;;;;;2.60;99.90;;;;;;5027212;28;19923;-86
2022/01/16 12:04:49;;;;;;;;;;;2.80;99.90;;;;;;5030163;28;19936;-87
2022/01/16 12:07:17;;;;;;;;;;;2.90;99.90;;;;;;5030432;28;19910;-87
2022/01/16 12:12:11;;;;;;;;;;;3.30;99.90;;;;;;5017837;28;19917;-91
2022/01/16 12:14:57;;;;;;;;;;;3.30;99.90;;;;;;5027933;28;20327;-88
2022/01/16 12:17:29;;;;;;;;;;;3.30;99.90;;;;;;5027451;28;19925;-87
2022/01/16 12:19:56;;;;;;;;;;;3.30;99.90;;;;;;5030900;28;19913;-87
2022/01/16 12:22:41;;;;;;;;;;;3.70;99.90;;;;;;5028297;28;20021;-86
2022/01/16 12:25:08;;;;;;;;;;;3.70;99.90;;;;;;5030690;28;19925;-88
2022/01/16 12:27:37;;;;;;;;;;;3.70;99.90;;;;;;5030823;28;19925;-89
2022/01/16 12:30:13;;;;;;;;;;;3.80;99.90;;;;;;5028611;28;19913;-88
2022/01/16 12:32:48;;;;;;;;;;;3.70;99.90;;;;;;5030603;28;19928;-86
2022/01/16 12:35:13;;;;;;;;;;;3.70;99.90;;;;;;5045996;28;20291;-87
2022/01/16 12:37:42;;;;;;;;;;;3.50;99.90;;;;;;5029975;28;19948;-87
2022/01/16 12:40:08;;;;;;;;;;;3.50;99.90;;;;;;5027454;28;20328;-85
2022/01/16 12:42:34;;;;;;;;;;;3.30;99.90;;;;;;5031008;28;19959;-88
2022/01/16 12:44:59;;;;;;;;;;;3.40;99.90;;;;;;5029243;28;19917;-84
2022/01/16 12:47:26;;;;;;;;;;;3.40;99.90;;;;;;5029025;28;19909;-85
2022/01/16 12:49:52;;;;;;;;;;;3.60;99.90;;;;;;5031367;28;19916;-87
2022/01/16 12:52:18;;;;;;;;;;;3.60;99.90;;;;;;5049403;28;19910;-86
2022/01/16 12:54:50;;;;;;;;;;;3.80;99.90;;;;;;5034533;28;20300;-86
2022/01/16 12:57:25;;;;;;;;;;;3.80;99.80;;;;;;5035053;28;19913;-88
2022/01/16 12:59:50;;;;;;;;;;;3.80;99.10;;;;;;5034144;28;20435;-87
2022/01/16 13:02:16;;;;;;;;;;;3.70;96.50;;;;;;5047843;28;19970;-86
2022/01/16 13:04:43;;;;;;;;;;;3.70;97.00;;;;;;5024809;28;19913;-86
2022/01/16 13:07:10;;;;;;;;;;;3.70;96.90;;;;;;5034910;28;19920;-90
2022/01/16 13:09:36;;;;;;;;;;;3.70;96.80;;;;;;5026036;28;20365;-85
2022/01/16 13:12:03;;;;;;;;;;;3.60;99.10;;;;;;5022806;28;19916;-85
2022/01/16 13:14:33;;;;;;;;;;;3.60;99.00;;;;;;5043709;28;20003;-87
2022/01/16 13:16:59;;;;;;;;;;;3.50;99.90;;;;;;5026671;28;20111;-88
2022/01/16 13:19:27;;;;;;;;;;;3.70;99.90;;;;;;5032343;28;19928;-90
2022/01/16 13:22:01;;;;;;;;;;;3.50;99.90;;;;;;5032707;28;19999;-85
2022/01/16 13:24:28;;;;;;;;;;;3.50;99.90;;;;;;5030842;28;19921;-89
2022/01/16 13:26:55;;;;;;;;;;;3.50;99.90;;;;;;5032579;28;19917;-91
2022/01/16 13:29:21;;;;;;;;;;;3.60;99.70;;;;;;5031620;28;19913;-87
2022/01/16 13:31:47;;;;;;;;;;;3.70;99.80;;;;;;5032837;28;19913;-87
2022/01/16 13:34:15;;;;;;;;;;;3.70;98.70;;;;;;5031933;28;19917;-85
2022/01/16 13:36:50;;;;;;;;;;;3.60;98.60;;;;;;5031864;28;19921;-86
2022/01/16 13:39:16;;;;;;;;;;;3.60;98.60;;;;;;5015531;28;19986;-88
2022/01/16 13:41:44;;;;;;;;;;;3.70;99.10;;;;;;5023624;28;19917;-87
2022/01/16 13:44:36;;;;;;;;;;;3.80;97.70;;;;;;5032827;28;19924;-89
2022/01/16 13:47:02;;;;;;;;;;;3.70;97.40;;;;;;5031776;28;19920;-86
2022/01/16 13:49:27;;;;;;;;;;;3.60;97.20;;;;;;5032775;28;19917;-87
2022/01/16 13:51:56;;;;;;;;;;;3.60;96.80;;;;;;5033225;28;20023;-87
2022/01/16 13:54:27;;;;;;;;;;;3.60;97.00;;;;;;5031255;28;19960;-86
2022/01/16 13:56:53;;;;;;;;;;;3.50;95.60;;;;;;5031548;28;19914;-86
2022/01/16 13:59:19;;;;;;;;;;;3.40;96.50;;;;;;5031730;28;19925;-85
2022/01/16 14:01:52;;;;;;;;;;;3.40;97.20;;;;;;5028227;28;19917;-86
2022/01/16 14:04:17;;;;;;;;;;;3.40;96.00;;;;;;5026512;28;20270;-86
2022/01/16 14:06:55;;;;;;;;;;;3.40;96.50;;;;;;5057165;28;19920;-86
2022/01/16 14:09:24;;;;;;;;;;;3.40;96.30;;;;;;5045322;28;20261;-86
2022/01/16 14:11:51;;;;;;;;;;;3.30;95.70;;;;;;5032826;28;20343;-87
2022/01/16 14:14:18;;;;;;;;;;;3.30;96.80;;;;;;5031630;28;20017;-89
2022/01/16 14:19:25;;;;;;;;;;;3.50;96.20;;;;;;5031402;28;19926;-87
2022/01/16 14:22:02;;;;;;;;;;;3.40;95.50;;;;;;5032072;28;19909;-88
2022/01/16 14:24:41;;;;;;;;;;;3.40;95.00;;;;;;5011493;28;20277;-88
2022/01/16 14:27:08;;;;;;;;;;;3.30;95.40;;;;;;5035041;28;19913;-87
2022/01/16 14:29:35;;;;;;;;;;;3.20;96.30;;;;;;5040182;28;19909;-86
2022/01/16 14:32:02;;;;;;;;;;;3.20;96.80;;;;;;5030531;28;20332;-90
2022/01/16 14:34:27;;;;;;;;;;;3.10;96.90;;;;;;5014977;28;20622;-88
2022/01/16 14:36:53;;;;;;;;;;;3.00;97.20;;;;;;5033005;28;19936;-87
2022/01/16 14:39:19;;;;;;;;;;;2.90;97.70;;;;;;5048827;28;19909;-89
2022/01/16 14:41:49;;;;;;;;;;;2.80;98.20;;;;;;5031368;28;19913;-86
2022/01/16 14:44:16;;;;;;;;;;;2.70;98.40;;;;;;5028482;28;19979;-87
2022/01/16 14:46:42;;;;;;;;;;;2.60;99.10;;;;;;5047990;28;20364;-87
2022/01/16 14:49:07;;;;;;;;;;;2.70;99.30;;;;;;5014776;28;19964;-88
2022/01/16 14:51:33;;;;;;;;;;;2.70;99.40;;;;;;5031595;28;19948;-86
2022/01/16 14:53:59;;;;;;;;;;;2.80;99.40;;;;;;5032256;28;19917;-89
2022/01/16 14:56:25;;;;;;;;;;;2.90;99.00;;;;;;5033136;28;20322;-86
2022/01/16 14:58:50;;;;;;;;;;;3.00;99.20;;;;;;5015585;28;20008;-88
2022/01/16 15:01:16;;;;;;;;;;;3.00;99.00;;;;;;5030673;28;20000;-88
2022/01/16 15:03:42;;;;;;;;;;;3.00;99.30;;;;;;5030787;28;19909;-89
2022/01/16 15:06:09;;;;;;;;;;;3.00;99.00;;;;;;5035639;28;19917;-88
2022/01/16 15:08:35;;;;;;;;;;;3.00;99.20;;;;;;5018945;28;19920;-87
2022/01/16 15:11:01;;;;;;;;;;;3.10;98.80;;;;;;5029923;28;19960;-89
2022/01/16 15:13:27;;;;;;;;;;;3.10;98.10;;;;;;5032210;28;20277;-87
2022/01/16 15:15:52;;;;;;;;;;;3.00;98.20;;;;;;5031375;28;20343;-89